Time,TemperatureF,DewpointF,PressureIn,WindDirection,WindDirectionDegrees,WindSpeedMPH,WindSpeedGustMPH,Humidity,HourlyPrecipIn,Conditions,Clouds,dailyrainin,SoftwareType,DateUTC
2013-01-18 00:04:00,35.0,-99.9,30.07,North,3,6.0,9.0,-999,-99.99,,,-99.99,,2013-01-18 05:04:00,
2013-01-18 00:12:00,36.0,-99.9,30.07,NE,34,6.0,9.0,-999,-99.99,,,-99.99,,2013-01-18 05:12:00,
2013-01-18 00:22:00,36.0,-99.9,30.07,North,8,8.0,12.0,-999,-99.99,,,-99.99,,2013-01-18 05:22:00,
2013-01-18 00:33:00,36.0,-99.9,30.05,NE,36,7.0,10.0,-999,-99.99,,,-99.99,,2013-01-18 05:33:00,
2013-01-18 00:43:00,36.0,-99.9,30.07,NE,35,6.0,8.0,-999,-99.99,,,-99.99,,2013-01-18 05:43:00,
2013-01-18 00:53:00,36.0,-99.9,30.09,NNW,327,7.0,9.0,-999,-99.99,,,-99.99,,2013-01-18 05:53:00,
2013-01-18 01:03:00,36.0,-99.9,30.11,NNW,335,6.0,8.0,-999,-99.99,,,-99.99,,2013-01-18 06:03:00,
2013-01-18 01:12:00,36.0,-99.9,30.11,NNW,328,6.0,7.0,-999,-99.99,,,-99.99,,2013-01-18 06:12:00,
2013-01-18 01:23:00,36.0,-99.9,30.09,NNW,332,5.0,7.0,-999,-99.99,,,-99.99,,2013-01-18 06:23:00,
2013-01-18 01:33:00,37.0,-99.9,30.09,NW,316,5.0,6.0,-999,-99.99,,,-99.99,,2013-01-18 06:33:00,
2013-01-18 01:43:00,36.0,-99.9,30.10,West,273,5.0,6.0,-999,-99.99,,,-99.99,,2013-01-18 06:43:00,
2013-01-18 01:53:00,35.0,-99.9,30.10,West,274,6.0,8.0,-999,-99.99,,,-99.99,,2013-01-18 06:53:00,
2013-01-18 02:02:00,35.0,-99.9,30.11,West,279,6.0,7.0,-999,-99.99,,,-99.99,,2013-01-18 07:02:00,
2013-01-18 02:12:00,35.0,-99.9,30.11,WNW,287,8.0,9.0,-999,-99.99,,,-99.99,,2013-01-18 07:12:00,
2013-01-18 02:22:00,35.0,-99.9,30.13,WNW,288,8.0,10.0,-999,-99.99,,,-99.99,,2013-01-18 07:22:00,
2013-01-18 02:33:00,35.0,-99.9,30.12,WNW,295,7.0,9.0,-999,-99.99,,,-99.99,,2013-01-18 07:33:00,
2013-01-18 02:43:00,35.0,-99.9,30.13,WNW,294,10.0,12.0,-999,-99.99,,,-99.99,,2013-01-18 07:43:00,
2013-01-18 02:52:00,35.0,-99.9,30.14,WNW,295,10.0,12.0,-999,-99.99,,,-99.99,,2013-01-18 07:52:00,
2013-01-18 03:02:00,35.0,-99.9,30.14,WNW,286,10.0,11.0,-999,-99.99,,,-99.99,,2013-01-18 08:02:00,
2013-01-18 03:12:00,35.0,-99.9,30.15,WNW,295,10.0,13.0,-999,-99.99,,,-99.99,,2013-01-18 08:12:00,
2013-01-18 03:22:00,36.0,-99.9,30.15,WNW,292,10.0,13.0,-999,-99.99,,,-99.99,,2013-01-18 08:22:00,
2013-01-18 03:33:00,36.0,-99.9,30.15,WNW,302,11.0,13.0,-999,-99.99,,,-99.99,,2013-01-18 08:33:00,
2013-01-18 03:43:00,36.0,-99.9,30.15,WNW,299,9.0,11.0,-999,-99.99,,,-99.99,,2013-01-18 08:43:00,
2013-01-18 03:53:00,36.0,-99.9,30.16,WNW,295,9.0,11.0,-999,-99.99,,,-99.99,,2013-01-18 08:53:00,
2013-01-18 04:03:00,36.0,-99.9,30.16,WNW,302,9.0,11.0,-999,-99.99,,,-99.99,,2013-01-18 09:03:00,
2013-01-18 04:12:00,37.0,-99.9,30.16,NW,306,10.0,12.0,-999,-99.99,,,-99.99,,2013-01-18 09:12:00,
2013-01-18 04:22:00,37.0,-99.9,30.16,NW,308,9.0,11.0,-999,-99.99,,,-99.99,,2013-01-18 09:22:00,
2013-01-18 04:33:00,36.0,-99.9,30.16,WNW,297,7.0,8.0,-999,-99.99,,,-99.99,,2013-01-18 09:33:00,
2013-01-18 04:43:00,36.0,-99.9,30.17,WNW,291,6.0,8.0,-999,-99.99,,,-99.99,,2013-01-18 09:43:00,
2013-01-18 04:53:00,36.0,-99.9,30.18,WNW,289,6.0,7.0,-999,-99.99,,,-99.99,,2013-01-18 09:53:00,
2013-01-18 05:03:00,37.0,-99.9,30.18,NW,325,9.0,14.0,-999,-99.99,,,-99.99,,2013-01-18 10:03:00,
2013-01-18 05:12:00,37.0,-99.9,30.18,NW,305,9.0,13.0,-999,-99.99,,,-99.99,,2013-01-18 10:12:00,
2013-01-18 05:22:00,38.0,-99.9,30.19,NW,318,10.0,12.0,-999,-99.99,,,-99.99,,2013-01-18 10:22:00,
2013-01-18 05:33:00,38.0,-99.9,30.19,NW,317,10.0,12.0,-999,-99.99,,,-99.99,,2013-01-18 10:33:00,
2013-01-18 05:43:00,38.0,-99.9,30.20,NW,323,11.0,15.0,-999,-99.99,,,-99.99,,2013-01-18 10:43:00,
2013-01-18 05:53:00,38.0,-99.9,30.20,NW,312,8.0,10.0,-999,-99.99,,,-99.99,,2013-01-18 10:53:00,
2013-01-18 06:03:00,38.0,-99.9,30.21,NW,311,9.0,12.0,-999,-99.99,,,-99.99,,2013-01-18 11:03:00,
2013-01-18 06:12:00,38.0,-99.9,30.22,NW,316,13.0,16.0,-999,-99.99,,,-99.99,,2013-01-18 11:12:00,
2013-01-18 06:23:00,38.0,-99.9,30.22,NW,322,12.0,17.0,-999,-99.99,,,-99.99,,2013-01-18 11:23:00,
2013-01-18 06:33:00,38.0,-99.9,30.22,NW,318,15.0,19.0,-999,-99.99,,,-99.99,,2013-01-18 11:33:00,
2013-01-18 06:43:00,38.0,-99.9,30.23,NW,322,16.0,23.0,-999,-99.99,,,-99.99,,2013-01-18 11:43:00,
2013-01-18 06:53:00,39.0,-99.9,30.24,NW,323,20.0,29.0,-999,-99.99,,,-99.99,,2013-01-18 11:53:00,
2013-01-18 07:03:00,40.0,-99.9,30.26,NNW,341,20.0,29.0,-999,-99.99,,,-99.99,,2013-01-18 12:03:00,
2013-01-18 07:12:00,40.0,-99.9,30.26,NNW,343,21.0,31.0,-999,-99.99,,,-99.99,,2013-01-18 12:12:00,
2013-01-18 07:23:00,40.0,-99.9,30.28,NNW,337,15.0,27.0,-999,-99.99,,,-99.99,,2013-01-18 12:23:00,
2013-01-18 07:33:00,40.0,-99.9,30.28,NNW,339,18.0,30.0,-999,-99.99,,,-99.99,,2013-01-18 12:33:00,
2013-01-18 07:43:00,40.0,-99.9,30.29,NNW,331,15.0,21.0,-999,-99.99,,,-99.99,,2013-01-18 12:43:00,
2013-01-18 07:53:00,40.0,-99.9,30.31,NNW,334,15.0,21.0,-999,-99.99,,,-99.99,,2013-01-18 12:53:00,
2013-01-18 08:03:00,40.0,-99.9,30.31,NW,326,15.0,21.0,-999,-99.99,,,-99.99,,2013-01-18 13:03:00,
2013-01-18 08:12:00,39.0,-99.9,30.32,NW,325,16.0,22.0,-999,-99.99,,,-99.99,,2013-01-18 13:12:00,
2013-01-18 08:23:00,39.0,-99.9,30.34,NNW,340,13.0,19.0,-999,-99.99,,,-99.99,,2013-01-18 13:23:00,
2013-01-18 08:34:00,39.0,-99.9,30.35,North,349,13.0,21.0,-999,-99.99,,,-99.99,,2013-01-18 13:34:00,
2013-01-18 08:43:00,39.0,-99.9,30.35,NNW,347,16.0,22.0,-999,-99.99,,,-99.99,,2013-01-18 13:43:00,
2013-01-18 08:53:00,39.0,-99.9,30.37,North,349,18.0,25.0,-999,-99.99,,,-99.99,,2013-01-18 13:53:00,
2013-01-18 09:03:00,39.0,-99.9,30.37,North,351,16.0,24.0,-999,-99.99,,,-99.99,,2013-01-18 14:03:00,
2013-01-18 09:13:00,39.0,-99.9,30.38,NNW,330,16.0,24.0,-999,-99.99,,,-99.99,,2013-01-18 14:13:00,
2013-01-18 09:23:00,39.0,-99.9,30.40,NNW,348,15.0,20.0,-999,-99.99,,,-99.99,,2013-01-18 14:23:00,
2013-01-18 09:34:00,38.0,-99.9,30.40,North,356,14.0,22.0,-999,-99.99,,,-99.99,,2013-01-18 14:34:00,
2013-01-18 09:43:00,38.0,-99.9,30.41,North,5,12.0,18.0,-999,-99.99,,,-99.99,,2013-01-18 14:43:00,
2013-01-18 09:53:00,38.0,-99.9,30.42,North,4,16.0,24.0,-999,-99.99,,,-99.99,,2013-01-18 14:53:00,
2013-01-18 10:03:00,38.0,-99.9,30.43,North,2,16.0,23.0,-999,-99.99,,,-99.99,,2013-01-18 15:03:00,
2013-01-18 10:13:00,38.0,-99.9,30.44,North,5,16.0,23.0,-999,-99.99,,,-99.99,,2013-01-18 15:13:00,
2013-01-18 10:23:00,38.0,-99.9,30.44,North,-999,14.0,19.0,-999,-99.99,,,-99.99,,2013-01-18 15:23:00,
2013-01-18 10:34:00,38.0,-99.9,30.45,North,5,15.0,21.0,-999,-99.99,,,-99.99,,2013-01-18 15:34:00,
2013-01-18 10:44:00,38.0,-99.9,30.45,North,1,16.0,23.0,-999,-99.99,,,-99.99,,2013-01-18 15:44:00,
2013-01-18 10:54:00,38.0,-99.9,30.46,North,350,11.0,17.0,-999,-99.99,,,-99.99,,2013-01-18 15:54:00,
2013-01-18 11:03:00,38.0,-99.9,30.46,North,8,12.0,19.0,-999,-99.99,,,-99.99,,2013-01-18 16:03:00,
2013-01-18 11:13:00,38.0,-99.9,30.46,North,356,11.0,18.0,-999,-99.99,,,-99.99,,2013-01-18 16:13:00,
2013-01-18 11:23:00,37.0,-99.9,30.46,North,354,14.0,18.0,-999,-99.99,,,-99.99,,2013-01-18 16:23:00,
2013-01-18 11:33:00,37.0,-99.9,30.46,NNW,342,11.0,16.0,-999,-99.99,,,-99.99,,2013-01-18 16:33:00,
2013-01-18 11:43:00,37.0,-99.9,30.46,NNW,341,12.0,17.0,-999,-99.99,,,-99.99,,2013-01-18 16:43:00,
2013-01-18 11:53:00,37.0,-99.9,30.46,NNW,343,11.0,15.0,-999,-99.99,,,-99.99,,2013-01-18 16:53:00,
2013-01-18 12:03:00,38.0,-99.9,30.46,North,349,9.0,13.0,-999,-99.99,,,-99.99,,2013-01-18 17:03:00,
2013-01-18 12:13:00,37.0,-99.9,30.46,North,357,11.0,16.0,-999,-99.99,,,-99.99,,2013-01-18 17:13:00,
2013-01-18 12:23:00,37.0,-99.9,30.46,North,353,7.0,11.0,-999,-99.99,,,-99.99,,2013-01-18 17:23:00,
2013-01-18 12:34:00,37.0,-99.9,30.46,North,358,11.0,15.0,-999,-99.99,,,-99.99,,2013-01-18 17:34:00,
2013-01-18 12:43:00,37.0,-99.9,30.46,North,351,8.0,12.0,-999,-99.99,,,-99.99,,2013-01-18 17:43:00,
2013-01-18 12:53:00,37.0,-99.9,30.45,North,349,12.0,17.0,-999,-99.99,,,-99.99,,2013-01-18 17:53:00,
2013-01-18 13:03:00,37.0,-99.9,30.45,NNW,330,9.0,13.0,-999,-99.99,,,-99.99,,2013-01-18 18:03:00,
2013-01-18 13:13:00,37.0,-99.9,30.45,North,352,10.0,14.0,-999,-99.99,,,-99.99,,2013-01-18 18:13:00,
2013-01-18 13:24:00,37.0,-99.9,30.45,North,350,11.0,14.0,-999,-99.99,,,-99.99,,2013-01-18 18:24:00,
2013-01-18 13:34:00,37.0,-99.9,30.45,NNW,331,12.0,16.0,-999,-99.99,,,-99.99,,2013-01-18 18:34:00,
2013-01-18 13:44:00,37.0,-99.9,30.46,NNW,334,6.0,9.0,-999,-99.99,,,-99.99,,2013-01-18 18:44:00,
2013-01-18 13:53:00,37.0,-99.9,30.46,NW,326,11.0,15.0,-999,-99.99,,,-99.99,,2013-01-18 18:53:00,
2013-01-18 14:03:00,38.0,-99.9,30.46,NW,319,11.0,13.0,-999,-99.99,,,-99.99,,2013-01-18 19:03:00,
2013-01-18 14:13:00,37.0,-99.9,30.47,North,351,6.0,8.0,-999,-99.99,,,-99.99,,2013-01-18 19:13:00,
2013-01-18 14:23:00,38.0,-99.9,30.47,NNW,338,10.0,14.0,-999,-99.99,,,-99.99,,2013-01-18 19:23:00,
2013-01-18 14:33:00,38.0,-99.9,30.47,NNW,348,8.0,14.0,-999,-99.99,,,-99.99,,2013-01-18 19:33:00,
2013-01-18 14:43:00,38.0,-99.9,30.47,NNW,340,11.0,14.0,-999,-99.99,,,-99.99,,2013-01-18 19:43:00,
2013-01-18 14:53:00,38.0,-99.9,30.47,NNW,347,10.0,14.0,-999,-99.99,,,-99.99,,2013-01-18 19:53:00,
2013-01-18 15:03:00,38.0,-99.9,30.48,North,355,10.0,13.0,-999,-99.99,,,-99.99,,2013-01-18 20:03:00,
2013-01-18 15:13:00,38.0,-99.9,30.48,NNW,345,8.0,13.0,-999,-99.99,,,-99.99,,2013-01-18 20:13:00,
2013-01-18 15:23:00,38.0,-99.9,30.48,NNW,346,11.0,16.0,-999,-99.99,,,-99.99,,2013-01-18 20:23:00,
2013-01-18 15:33:00,38.0,-99.9,30.48,NNW,346,10.0,13.0,-999,-99.99,,,-99.99,,2013-01-18 20:33:00,
2013-01-18 15:43:00,38.0,-99.9,30.49,NNW,327,11.0,14.0,-999,-99.99,,,-99.99,,2013-01-18 20:43:00,
2013-01-18 15:53:00,38.0,-99.9,30.49,NW,316,12.0,14.0,-999,-99.99,,,-99.99,,2013-01-18 20:53:00,
2013-01-18 16:03:00,38.0,-99.9,30.50,NW,313,10.0,13.0,-999,-99.99,,,-99.99,,2013-01-18 21:03:00,
2013-01-18 16:13:00,38.0,-99.9,30.50,NW,313,11.0,14.0,-999,-99.99,,,-99.99,,2013-01-18 21:13:00,
2013-01-18 16:23:00,38.0,-99.9,30.50,NNW,340,9.0,12.0,-999,-99.99,,,-99.99,,2013-01-18 21:23:00,
2013-01-18 16:33:00,38.0,-99.9,30.50,NNW,335,9.0,13.0,-999,-99.99,,,-99.99,,2013-01-18 21:33:00,
2013-01-18 16:43:00,38.0,-99.9,30.50,NW,324,13.0,17.0,-999,-99.99,,,-99.99,,2013-01-18 21:43:00,
2013-01-18 16:53:00,38.0,-99.9,30.51,North,357,7.0,11.0,-999,-99.99,,,-99.99,,2013-01-18 21:53:00,
2013-01-18 17:03:00,38.0,-99.9,30.51,NW,304,11.0,14.0,-999,-99.99,,,-99.99,,2013-01-18 22:03:00,
2013-01-18 17:12:00,38.0,-99.9,30.51,NW,317,9.0,10.0,-999,-99.99,,,-99.99,,2013-01-18 22:12:00,
2013-01-18 17:23:00,37.0,-99.9,30.51,NW,317,12.0,14.0,-999,-99.99,,,-99.99,,2013-01-18 22:23:00,
2013-01-18 17:33:00,37.0,-99.9,30.52,NW,315,6.0,7.0,-999,-99.99,,,-99.99,,2013-01-18 22:33:00,
2013-01-18 17:43:00,37.0,-99.9,30.52,NW,315,6.0,7.0,-999,-99.99,,,-99.99,,2013-01-18 22:43:00,
2013-01-18 17:53:00,37.0,-99.9,30.52,WNW,302,4.0,5.0,-999,-99.99,,,-99.99,,2013-01-18 22:53:00,
2013-01-18 18:03:00,37.0,-99.9,30.52,NW,304,6.0,7.0,-999,-99.99,,,-99.99,,2013-01-18 23:03:00,
2013-01-18 18:12:00,36.0,-99.9,30.52,WNW,293,2.0,3.0,-999,-99.99,,,-99.99,,2013-01-18 23:12:00,
2013-01-18 18:23:00,36.0,-99.9,30.52,NW,318,4.0,5.0,-999,-99.99,,,-99.99,,2013-01-18 23:23:00,
2013-01-18 18:33:00,36.0,-99.9,30.52,NW,324,2.0,3.0,-999,-99.99,,,-99.99,,2013-01-18 23:33:00,
2013-01-18 18:43:00,36.0,-99.9,30.52,North,349,2.0,2.0,-999,-99.99,,,-99.99,,2013-01-18 23:43:00,
2013-01-18 18:53:00,36.0,-99.9,30.53,NW,323,1.0,2.0,-999,-99.99,,,-99.99,,2013-01-18 23:53:00,
2013-01-18 19:03:00,36.0,-99.9,30.53,ENE,63,3.0,6.0,-999,-99.99,,,-99.99,,2013-01-19 00:03:00,
2013-01-18 19:13:00,37.0,-99.9,30.53,East,91,3.0,4.0,-999,-99.99,,,-99.99,,2013-01-19 00:13:00,
2013-01-18 19:23:00,36.0,-99.9,30.53,SW,215,5.0,6.0,-999,-99.99,,,-99.99,,2013-01-19 00:23:00,
2013-01-18 19:33:00,35.0,-99.9,30.53,WSW,238,5.0,5.0,-999,-99.99,,,-99.99,,2013-01-19 00:33:00,
2013-01-18 19:43:00,35.0,-99.9,30.53,SW,218,4.0,5.0,-999,-99.99,,,-99.99,,2013-01-19 00:43:00,
2013-01-18 19:53:00,35.0,-99.9,30.53,SSW,212,5.0,6.0,-999,-99.99,,,-99.99,,2013-01-19 00:53:00,
2013-01-18 20:03:00,35.0,-99.9,30.53,SSW,198,5.0,6.0,-999,-99.99,,,-99.99,,2013-01-19 01:03:00,
2013-01-18 20:13:00,35.0,-99.9,30.52,SSW,200,5.0,6.0,-999,-99.99,,,-99.99,,2013-01-19 01:13:00,
2013-01-18 20:23:00,35.0,-99.9,30.52,SSW,206,5.0,6.0,-999,-99.99,,,-99.99,,2013-01-19 01:23:00,
2013-01-18 20:33:00,34.0,-99.9,30.52,SSW,201,6.0,6.0,-999,-99.99,,,-99.99,,2013-01-19 01:33:00,
2013-01-18 20:43:00,34.0,-99.9,30.53,SSW,208,6.0,6.0,-999,-99.99,,,-99.99,,2013-01-19 01:43:00,
2013-01-18 20:53:00,33.0,-99.9,30.53,South,191,7.0,8.0,-999,-99.99,,,-99.99,,2013-01-19 01:53:00,
2013-01-18 21:03:00,33.0,-99.9,30.52,SSW,209,5.0,6.0,-999,-99.99,,,-99.99,,2013-01-19 02:03:00,
2013-01-18 21:12:00,34.0,-99.9,30.52,SSW,198,5.0,6.0,-999,-99.99,,,-99.99,,2013-01-19 02:12:00,
2013-01-18 21:23:00,34.0,-99.9,30.52,SSW,195,5.0,7.0,-999,-99.99,,,-99.99,,2013-01-19 02:23:00,
2013-01-18 21:33:00,34.0,-99.9,30.53,SSW,207,5.0,6.0,-999,-99.99,,,-99.99,,2013-01-19 02:33:00,
2013-01-18 21:43:00,34.0,-99.9,30.53,South,189,8.0,9.0,-999,-99.99,,,-99.99,,2013-01-19 02:43:00,
2013-01-18 21:53:00,34.0,-99.9,30.53,SSW,197,8.0,9.0,-999,-99.99,,,-99.99,,2013-01-19 02:53:00,
2013-01-18 22:03:00,33.0,-99.9,30.53,SSW,210,5.0,6.0,-999,-99.99,,,-99.99,,2013-01-19 03:03:00,
2013-01-18 22:12:00,33.0,-99.9,30.53,SSW,201,7.0,8.0,-999,-99.99,,,-99.99,,2013-01-19 03:12:00,
2013-01-18 22:23:00,33.0,-99.9,30.53,SSW,196,7.0,9.0,-999,-99.99,,,-99.99,,2013-01-19 03:23:00,
2013-01-18 22:33:00,33.0,-99.9,30.53,SSW,196,7.0,9.0,-999,-99.99,,,-99.99,,2013-01-19 03:33:00,
2013-01-18 22:44:00,33.0,-99.9,30.53,SSW,205,6.0,6.0,-999,-99.99,,,-99.99,,2013-01-19 03:44:00,
2013-01-18 22:53:00,33.0,-99.9,30.52,SSW,203,6.0,8.0,-999,-99.99,,,-99.99,,2013-01-19 03:53:00,
2013-01-18 23:03:00,33.0,-99.9,30.52,SSW,207,6.0,8.0,-999,-99.99,,,-99.99,,2013-01-19 04:03:00,
2013-01-18 23:12:00,33.0,-99.9,30.51,SSW,209,7.0,9.0,-999,-99.99,,,-99.99,,2013-01-19 04:12:00,
2013-01-18 23:22:00,34.0,-99.9,30.51,SSW,207,7.0,8.0,-999,-99.99,,,-99.99,,2013-01-19 04:22:00,
2013-01-18 23:33:00,34.0,-99.9,30.50,SSW,197,9.0,10.0,-999,-99.99,,,-99.99,,2013-01-19 04:33:00,
2013-01-18 23:43:00,34.0,-99.9,30.50,SSW,195,8.0,10.0,-999,-99.99,,,-99.99,,2013-01-19 04:43:00,
2013-01-18 23:53:00,34.0,-99.9,30.49,SSW,192,9.0,11.0,-999,-99.99,,,-99.99,,2013-01-19 04:53:00,